TRA35W EBBR-LEAL
Flight info
| Callsign | TRA35W |
|---|---|
| Flight time | 2h 6m |
| Altitude | 33000 |
| Route | CIV N872 LESDO DCT KOVIN DCT DUCRA/N0450F350 DCT RESMI/N0454F370 DCT DEKOD DCT DISAK DCT DIRMO DCT GUERE DCT AGN DCT ANETO DCT POSSY DCT XIMPE DCT RIMES DCT SAURA DCT TATOS DCT PLANA DCT VLC |
| Aircraft | B738/M-SDE2E3FGHIJ1P2RWXY/LB1 |
Departure
| Time | 2026-05-07 07:59 |
|---|---|
| Airport | Brussels Airport (EBBR) |
Arrival
| Time | 2026-05-07 10:05 |
|---|---|
| Airport | Alicante-Elche Miguel Hernández Airport (LEAL) |
| Time | Latitude | Longitude | Altitude | Speed | Heading |
|---|---|---|---|---|---|
| 2026-05-07 07:30 | 50.90056 | 4.49102 | 125 ft | 0 kts | 335° |
| 2026-05-07 07:49 | 50.90050 | 4.49107 | 130 ft | 4 kts | 336° |
| 2026-05-07 07:50 | 50.90025 | 4.49123 | 125 ft | 4 kts | 340° |
| 2026-05-07 07:50 | 50.89999 | 4.49136 | 132 ft | 4 kts | 346° |
| 2026-05-07 07:50 | 50.89973 | 4.49143 | 133 ft | 4 kts | 4° |
| 2026-05-07 07:50 | 50.89952 | 4.49132 | 134 ft | 3 kts | 60° |
| 2026-05-07 07:51 | 50.89950 | 4.49128 | 134 ft | 0 kts | 65° |
| 2026-05-07 07:54 | 50.89955 | 4.49144 | 134 ft | 4 kts | 65° |
| 2026-05-07 07:55 | 50.89969 | 4.49207 | 133 ft | 9 kts | 73° |
| 2026-05-07 07:55 | 50.89999 | 4.49321 | 128 ft | 14 kts | 62° |
| 2026-05-07 07:55 | 50.90069 | 4.49436 | 125 ft | 15 kts | 15° |
| 2026-05-07 07:55 | 50.90172 | 4.49476 | 126 ft | 16 kts | 14° |
| 2026-05-07 07:56 | 50.90285 | 4.49523 | 125 ft | 19 kts | 14° |
| 2026-05-07 07:56 | 50.90420 | 4.49578 | 123 ft | 21 kts | 14° |
| 2026-05-07 07:56 | 50.90567 | 4.49638 | 123 ft | 22 kts | 14° |
| 2026-05-07 07:56 | 50.90719 | 4.49699 | 121 ft | 23 kts | 14° |
| 2026-05-07 07:57 | 50.90861 | 4.49757 | 123 ft | 19 kts | 15° |
| 2026-05-07 07:57 | 50.90977 | 4.49855 | 121 ft | 19 kts | 41° |
| 2026-05-07 07:57 | 50.91077 | 4.49937 | 117 ft | 12 kts | 15° |
| 2026-05-07 07:57 | 50.91139 | 4.49874 | 117 ft | 12 kts | 263° |
| 2026-05-07 07:58 | 50.91101 | 4.49754 | 118 ft | 14 kts | 247° |
| 2026-05-07 07:58 | 50.90985 | 4.49352 | 117 ft | 75 kts | 245° |
| 2026-05-07 07:58 | 50.90672 | 4.48271 | 116 ft | 139 kts | 245° |
| 2026-05-07 07:58 | 50.90201 | 4.46670 | 359 ft | 170 kts | 246° |
| 2026-05-07 07:59 | 50.89711 | 4.44977 | 1124 ft | 174 kts | 253° |
| 2026-05-07 07:59 | 50.89685 | 4.43048 | 1796 ft | 177 kts | 291° |
| 2026-05-07 07:59 | 50.90154 | 4.41175 | 2318 ft | 192 kts | 295° |
| 2026-05-07 07:59 | 50.90678 | 4.39065 | 2571 ft | 219 kts | 285° |
| 2026-05-07 08:00 | 50.90823 | 4.36532 | 2777 ft | 243 kts | 274° |
| 2026-05-07 08:00 | 50.90898 | 4.33733 | 3137 ft | 262 kts | 272° |
| 2026-05-07 08:00 | 50.90517 | 4.30906 | 3861 ft | 268 kts | 239° |
| 2026-05-07 08:00 | 50.89304 | 4.28682 | 4736 ft | 268 kts | 223° |
| 2026-05-07 08:01 | 50.87924 | 4.26683 | 5580 ft | 268 kts | 222° |
| 2026-05-07 08:01 | 50.86532 | 4.24719 | 6453 ft | 268 kts | 222° |
| 2026-05-07 08:01 | 50.85140 | 4.22758 | 7244 ft | 268 kts | 223° |
| 2026-05-07 08:01 | 50.83756 | 4.20801 | 7942 ft | 272 kts | 223° |
| 2026-05-07 08:02 | 50.82335 | 4.18784 | 8644 ft | 277 kts | 223° |
| 2026-05-07 08:02 | 50.80898 | 4.16738 | 9377 ft | 280 kts | 223° |
| 2026-05-07 08:02 | 50.79439 | 4.14658 | 10048 ft | 285 kts | 223° |
| 2026-05-07 08:02 | 50.77936 | 4.12511 | 10417 ft | 301 kts | 223° |
| 2026-05-07 08:03 | 50.76326 | 4.10211 | 10593 ft | 322 kts | 223° |
| 2026-05-07 08:03 | 50.74612 | 4.07762 | 10755 ft | 343 kts | 223° |
| 2026-05-07 08:03 | 50.72805 | 4.05183 | 11088 ft | 355 kts | 223° |
| 2026-05-07 08:03 | 50.70956 | 4.02548 | 11696 ft | 359 kts | 223° |
| 2026-05-07 08:04 | 50.69095 | 3.99899 | 12409 ft | 361 kts | 223° |
| 2026-05-07 08:04 | 50.67220 | 3.97232 | 13102 ft | 364 kts | 223° |
| 2026-05-07 08:04 | 50.65328 | 3.94541 | 13791 ft | 368 kts | 223° |
| 2026-05-07 08:04 | 50.63420 | 3.91831 | 14429 ft | 371 kts | 223° |
| 2026-05-07 08:05 | 50.61495 | 3.89100 | 15077 ft | 374 kts | 223° |
| 2026-05-07 08:05 | 50.59550 | 3.86344 | 15723 ft | 377 kts | 223° |
| 2026-05-07 08:05 | 50.57569 | 3.83607 | 16347 ft | 381 kts | 218° |
| 2026-05-07 08:05 | 50.55261 | 3.81613 | 16947 ft | 386 kts | 204° |
| 2026-05-07 08:06 | 50.52772 | 3.79991 | 17598 ft | 389 kts | 204° |
| 2026-05-07 08:06 | 50.50251 | 3.78344 | 18191 ft | 393 kts | 204° |
| 2026-05-07 08:06 | 50.47715 | 3.76662 | 18727 ft | 397 kts | 204° |
| 2026-05-07 08:06 | 50.45162 | 3.74945 | 19264 ft | 400 kts | 204° |
| 2026-05-07 08:07 | 50.42594 | 3.73204 | 19794 ft | 403 kts | 204° |
| 2026-05-07 08:07 | 50.40011 | 3.71447 | 20315 ft | 406 kts | 205° |
| 2026-05-07 08:07 | 50.37413 | 3.69681 | 20821 ft | 409 kts | 204° |
| 2026-05-07 08:07 | 50.34787 | 3.67899 | 21317 ft | 412 kts | 204° |
| 2026-05-07 08:08 | 50.32145 | 3.66110 | 21811 ft | 415 kts | 204° |
| 2026-05-07 08:08 | 50.29515 | 3.64331 | 22275 ft | 419 kts | 204° |
| 2026-05-07 08:08 | 50.26829 | 3.62515 | 22735 ft | 422 kts | 204° |
| 2026-05-07 08:08 | 50.24116 | 3.60682 | 23167 ft | 426 kts | 204° |
| 2026-05-07 08:09 | 50.21385 | 3.58840 | 23612 ft | 429 kts | 204° |
| 2026-05-07 08:09 | 50.18636 | 3.56990 | 24009 ft | 431 kts | 204° |
| 2026-05-07 08:09 | 50.15866 | 3.55130 | 24396 ft | 434 kts | 204° |
| 2026-05-07 08:09 | 50.13088 | 3.53270 | 24767 ft | 436 kts | 204° |
| 2026-05-07 08:10 | 50.10298 | 3.51404 | 25166 ft | 437 kts | 204° |
| 2026-05-07 08:10 | 50.07495 | 3.49531 | 25532 ft | 439 kts | 204° |
| 2026-05-07 08:10 | 50.04679 | 3.47652 | 25872 ft | 442 kts | 204° |
| 2026-05-07 08:10 | 50.01841 | 3.45760 | 26201 ft | 444 kts | 204° |
| 2026-05-07 08:11 | 49.98994 | 3.43864 | 26539 ft | 446 kts | 204° |
| 2026-05-07 08:11 | 49.97098 | 3.42602 | 26763 ft | 448 kts | 204° |
| 2026-05-07 08:11 | 49.94226 | 3.40693 | 27091 ft | 450 kts | 204° |
| 2026-05-07 08:11 | 49.90398 | 3.38153 | 27518 ft | 453 kts | 204° |
| 2026-05-07 08:12 | 49.87494 | 3.36228 | 27824 ft | 455 kts | 204° |
| 2026-05-07 08:12 | 49.84576 | 3.34296 | 28128 ft | 457 kts | 204° |
| 2026-05-07 08:12 | 49.82598 | 3.32989 | 28392 ft | 457 kts | 204° |
| 2026-05-07 08:12 | 49.79677 | 3.31060 | 28856 ft | 455 kts | 204° |
| 2026-05-07 08:13 | 49.76811 | 3.29165 | 29328 ft | 453 kts | 204° |
| 2026-05-07 08:13 | 49.73913 | 3.27249 | 29767 ft | 452 kts | 204° |
| 2026-05-07 08:13 | 49.71014 | 3.25333 | 30146 ft | 452 kts | 204° |
| 2026-05-07 08:13 | 49.68123 | 3.23424 | 30463 ft | 452 kts | 204° |
| 2026-05-07 08:14 | 49.65233 | 3.21518 | 30804 ft | 451 kts | 204° |
| 2026-05-07 08:14 | 49.62348 | 3.19620 | 31155 ft | 450 kts | 204° |
| 2026-05-07 08:14 | 49.59474 | 3.17729 | 31502 ft | 449 kts | 204° |
| 2026-05-07 08:14 | 49.56594 | 3.15838 | 31829 ft | 449 kts | 204° |
| 2026-05-07 08:15 | 49.53757 | 3.13977 | 32152 ft | 448 kts | 204° |
| 2026-05-07 08:15 | 49.50893 | 3.12102 | 32529 ft | 446 kts | 204° |
| 2026-05-07 08:15 | 49.48080 | 3.10142 | 32932 ft | 443 kts | 209° |
| 2026-05-07 08:15 | 49.45445 | 3.07677 | 33040 ft | 445 kts | 214° |
| 2026-05-07 08:16 | 49.42859 | 3.05019 | 33054 ft | 447 kts | 215° |
| 2026-05-07 08:16 | 49.37720 | 2.99645 | 33043 ft | 444 kts | 215° |
| 2026-05-07 08:17 | 49.32609 | 2.94391 | 33050 ft | 441 kts | 214° |
| 2026-05-07 08:17 | 49.27515 | 2.89235 | 33051 ft | 441 kts | 214° |
| 2026-05-07 08:18 | 49.22355 | 2.84042 | 33048 ft | 441 kts | 214° |
| 2026-05-07 08:18 | 49.17251 | 2.78919 | 33063 ft | 442 kts | 214° |
| 2026-05-07 08:19 | 49.12101 | 2.73759 | 33072 ft | 443 kts | 214° |
| 2026-05-07 08:19 | 49.06936 | 2.68596 | 33071 ft | 443 kts | 214° |
| 2026-05-07 08:20 | 49.01769 | 2.63443 | 33067 ft | 444 kts | 214° |
| 2026-05-07 08:20 | 48.96574 | 2.58275 | 33270 ft | 448 kts | 214° |
| 2026-05-07 08:20 | 48.93959 | 2.55680 | 33599 ft | 447 kts | 214° |
| 2026-05-07 08:21 | 48.91365 | 2.53108 | 33973 ft | 445 kts | 214° |
| 2026-05-07 08:21 | 48.88778 | 2.50546 | 34290 ft | 443 kts | 214° |
| 2026-05-07 08:21 | 48.86194 | 2.47989 | 34525 ft | 443 kts | 214° |
| 2026-05-07 08:21 | 48.83642 | 2.45465 | 34679 ft | 444 kts | 214° |
| 2026-05-07 08:22 | 48.81057 | 2.42912 | 34890 ft | 444 kts | 214° |
| 2026-05-07 08:22 | 48.78470 | 2.40360 | 35059 ft | 444 kts | 214° |
| 2026-05-07 08:22 | 48.75867 | 2.37795 | 35039 ft | 447 kts | 214° |
| 2026-05-07 08:23 | 48.70667 | 2.32681 | 35038 ft | 443 kts | 214° |
| 2026-05-07 08:23 | 48.65518 | 2.27629 | 35040 ft | 439 kts | 214° |
| 2026-05-07 08:24 | 48.60400 | 2.22620 | 35045 ft | 437 kts | 214° |
| 2026-05-07 08:24 | 48.55083 | 2.18578 | 35055 ft | 439 kts | 199° |
| 2026-05-07 08:25 | 48.49053 | 2.16555 | 35149 ft | 448 kts | 193° |
| 2026-05-07 08:25 | 48.45985 | 2.15630 | 35261 ft | 450 kts | 193° |
| 2026-05-07 08:25 | 48.42916 | 2.14681 | 35482 ft | 450 kts | 193° |
| 2026-05-07 08:25 | 48.39902 | 2.13727 | 35753 ft | 448 kts | 194° |
| 2026-05-07 08:26 | 48.33809 | 2.11768 | 36144 ft | 448 kts | 194° |
| 2026-05-07 08:26 | 48.30753 | 2.10805 | 36323 ft | 449 kts | 191° |
| 2026-05-07 08:26 | 48.27639 | 2.10338 | 36516 ft | 451 kts | 182° |
| 2026-05-07 08:27 | 48.24507 | 2.10620 | 36721 ft | 453 kts | 173° |
| 2026-05-07 08:27 | 48.21388 | 2.11364 | 36913 ft | 453 kts | 172° |
| 2026-05-07 08:27 | 48.18283 | 2.12116 | 37023 ft | 453 kts | 173° |
| 2026-05-07 08:27 | 48.15152 | 2.12820 | 37042 ft | 455 kts | 174° |
| 2026-05-07 08:28 | 48.08862 | 2.13669 | 37053 ft | 453 kts | 180° |
| 2026-05-07 08:28 | 48.02562 | 2.13951 | 37047 ft | 452 kts | 180° |
| 2026-05-07 08:29 | 47.96278 | 2.14223 | 37042 ft | 451 kts | 180° |
| 2026-05-07 08:29 | 47.90045 | 2.14554 | 37047 ft | 451 kts | 180° |
| 2026-05-07 08:30 | 47.83781 | 2.14915 | 37051 ft | 451 kts | 180° |
| 2026-05-07 08:30 | 47.77516 | 2.15281 | 37035 ft | 450 kts | 180° |
| 2026-05-07 08:31 | 47.71255 | 2.15645 | 37042 ft | 450 kts | 180° |
| 2026-05-07 08:31 | 47.64994 | 2.16006 | 37041 ft | 450 kts | 180° |
| 2026-05-07 08:32 | 47.58729 | 2.16366 | 37041 ft | 450 kts | 180° |
| 2026-05-07 08:32 | 47.52459 | 2.16725 | 37041 ft | 450 kts | 180° |
| 2026-05-07 08:33 | 47.46188 | 2.17084 | 37042 ft | 451 kts | 180° |
| 2026-05-07 08:33 | 47.39912 | 2.17442 | 37042 ft | 451 kts | 180° |
| 2026-05-07 08:34 | 47.33643 | 2.17799 | 37037 ft | 451 kts | 180° |
| 2026-05-07 08:34 | 47.27408 | 2.18153 | 37046 ft | 451 kts | 180° |
| 2026-05-07 08:35 | 47.21133 | 2.18509 | 37051 ft | 451 kts | 180° |
| 2026-05-07 08:35 | 47.14851 | 2.18864 | 37035 ft | 451 kts | 180° |
| 2026-05-07 08:36 | 47.08575 | 2.19193 | 37047 ft | 450 kts | 182° |
| 2026-05-07 08:36 | 47.02341 | 2.18637 | 37046 ft | 448 kts | 187° |
| 2026-05-07 08:37 | 46.96137 | 2.17801 | 37046 ft | 447 kts | 187° |
| 2026-05-07 08:37 | 46.89975 | 2.17017 | 37046 ft | 447 kts | 187° |
| 2026-05-07 08:38 | 46.83771 | 2.16283 | 37047 ft | 447 kts | 187° |
| 2026-05-07 08:38 | 46.77568 | 2.15569 | 37044 ft | 446 kts | 187° |
| 2026-05-07 08:39 | 46.71369 | 2.14859 | 37043 ft | 446 kts | 187° |
| 2026-05-07 08:39 | 46.65227 | 2.14155 | 37045 ft | 445 kts | 187° |
| 2026-05-07 08:40 | 46.59049 | 2.13448 | 37041 ft | 445 kts | 187° |
| 2026-05-07 08:40 | 46.52876 | 2.12743 | 37035 ft | 445 kts | 187° |
| 2026-05-07 08:41 | 46.46711 | 2.12040 | 37040 ft | 444 kts | 187° |
| 2026-05-07 08:41 | 46.40544 | 2.11338 | 37040 ft | 444 kts | 187° |
| 2026-05-07 08:42 | 46.34379 | 2.10639 | 37025 ft | 444 kts | 187° |
| 2026-05-07 08:42 | 46.28213 | 2.09941 | 37030 ft | 444 kts | 187° |
| 2026-05-07 08:43 | 46.22054 | 2.09245 | 37026 ft | 444 kts | 187° |
| 2026-05-07 08:43 | 46.16070 | 2.07457 | 37023 ft | 437 kts | 203° |
| 2026-05-07 08:44 | 46.10436 | 2.04301 | 37020 ft | 437 kts | 204° |
| 2026-05-07 08:44 | 46.04773 | 2.01116 | 37019 ft | 437 kts | 204° |
| 2026-05-07 08:45 | 45.99098 | 1.97975 | 37026 ft | 437 kts | 203° |
| 2026-05-07 08:45 | 45.93420 | 1.94864 | 37015 ft | 437 kts | 204° |
| 2026-05-07 08:46 | 45.87736 | 1.91763 | 37016 ft | 436 kts | 203° |
| 2026-05-07 08:46 | 45.82088 | 1.88690 | 37012 ft | 436 kts | 203° |
| 2026-05-07 08:47 | 45.76410 | 1.85606 | 37019 ft | 436 kts | 203° |
| 2026-05-07 08:47 | 45.70728 | 1.82527 | 37022 ft | 436 kts | 203° |
| 2026-05-07 08:48 | 45.65051 | 1.79457 | 37020 ft | 435 kts | 203° |
| 2026-05-07 08:48 | 45.59382 | 1.76397 | 37021 ft | 435 kts | 203° |
| 2026-05-07 08:49 | 45.53709 | 1.73342 | 37008 ft | 435 kts | 203° |
| 2026-05-07 08:49 | 45.48046 | 1.70299 | 37016 ft | 434 kts | 203° |
| 2026-05-07 08:50 | 45.42432 | 1.67289 | 37015 ft | 434 kts | 203° |
| 2026-05-07 08:50 | 45.36775 | 1.64262 | 37008 ft | 434 kts | 203° |
| 2026-05-07 08:51 | 45.31129 | 1.61247 | 37020 ft | 433 kts | 203° |
| 2026-05-07 08:51 | 45.25483 | 1.58239 | 37017 ft | 433 kts | 203° |
| 2026-05-07 08:52 | 45.19837 | 1.55238 | 37021 ft | 433 kts | 203° |
| 2026-05-07 08:52 | 45.14197 | 1.52246 | 37019 ft | 432 kts | 204° |
| 2026-05-07 08:53 | 45.08572 | 1.49268 | 37020 ft | 431 kts | 204° |
| 2026-05-07 08:53 | 45.02988 | 1.46318 | 37025 ft | 431 kts | 204° |
| 2026-05-07 08:54 | 44.97368 | 1.43355 | 37008 ft | 431 kts | 204° |
| 2026-05-07 08:54 | 44.91759 | 1.40404 | 37015 ft | 430 kts | 204° |
| 2026-05-07 08:55 | 44.86144 | 1.37456 | 37018 ft | 430 kts | 204° |
| 2026-05-07 08:55 | 44.80540 | 1.34520 | 37022 ft | 429 kts | 204° |
| 2026-05-07 08:56 | 44.74938 | 1.31591 | 37018 ft | 429 kts | 204° |
| 2026-05-07 08:56 | 44.69370 | 1.28687 | 37019 ft | 429 kts | 204° |
| 2026-05-07 08:57 | 44.63766 | 1.25768 | 37011 ft | 429 kts | 203° |
| 2026-05-07 08:57 | 44.58169 | 1.22861 | 37018 ft | 429 kts | 204° |
| 2026-05-07 08:58 | 44.53518 | 1.20448 | 37018 ft | 428 kts | 204° |
| 2026-05-07 08:58 | 44.47924 | 1.17553 | 37022 ft | 428 kts | 204° |
| 2026-05-07 08:59 | 44.42327 | 1.14662 | 37022 ft | 428 kts | 204° |
| 2026-05-07 08:59 | 44.36735 | 1.11778 | 37023 ft | 428 kts | 203° |
| 2026-05-07 09:00 | 44.31150 | 1.08905 | 37019 ft | 427 kts | 203° |
| 2026-05-07 09:00 | 44.25561 | 1.06036 | 37023 ft | 427 kts | 203° |
| 2026-05-07 09:01 | 44.20015 | 1.03194 | 37010 ft | 427 kts | 203° |
| 2026-05-07 09:01 | 44.14433 | 1.00339 | 37021 ft | 427 kts | 203° |
| 2026-05-07 09:02 | 44.08856 | 0.97493 | 37018 ft | 427 kts | 203° |
| 2026-05-07 09:02 | 44.03274 | 0.94649 | 37012 ft | 427 kts | 203° |
| 2026-05-07 09:03 | 43.97701 | 0.91815 | 37014 ft | 426 kts | 203° |
| 2026-05-07 09:03 | 43.92129 | 0.88987 | 37011 ft | 426 kts | 203° |
| 2026-05-07 09:04 | 43.86460 | 0.86517 | 37015 ft | 430 kts | 194° |
| 2026-05-07 09:04 | 43.80620 | 0.84988 | 37008 ft | 430 kts | 193° |
| 2026-05-07 09:05 | 43.74727 | 0.83490 | 37016 ft | 430 kts | 194° |
| 2026-05-07 09:05 | 43.68836 | 0.81950 | 37020 ft | 430 kts | 194° |
| 2026-05-07 09:06 | 43.62954 | 0.80386 | 37020 ft | 430 kts | 194° |
| 2026-05-07 09:06 | 43.57066 | 0.78817 | 37019 ft | 430 kts | 194° |
| 2026-05-07 09:07 | 43.51177 | 0.77250 | 37019 ft | 431 kts | 194° |
| 2026-05-07 09:07 | 43.45323 | 0.75697 | 37024 ft | 431 kts | 194° |
| 2026-05-07 09:08 | 43.39420 | 0.74134 | 37010 ft | 431 kts | 194° |
| 2026-05-07 09:08 | 43.33529 | 0.72578 | 37014 ft | 431 kts | 194° |
| 2026-05-07 09:09 | 43.27672 | 0.71033 | 37017 ft | 430 kts | 194° |
| 2026-05-07 09:09 | 43.21784 | 0.69483 | 37004 ft | 430 kts | 194° |
| 2026-05-07 09:10 | 43.15900 | 0.67938 | 37005 ft | 430 kts | 194° |
| 2026-05-07 09:10 | 43.10027 | 0.66398 | 37006 ft | 430 kts | 194° |
| 2026-05-07 09:11 | 43.04148 | 0.64860 | 37010 ft | 430 kts | 194° |
| 2026-05-07 09:11 | 42.98268 | 0.63324 | 37008 ft | 429 kts | 194° |
| 2026-05-07 09:12 | 42.92436 | 0.61804 | 36993 ft | 429 kts | 193° |
| 2026-05-07 09:12 | 42.86573 | 0.60279 | 37001 ft | 428 kts | 193° |
| 2026-05-07 09:13 | 42.80727 | 0.58760 | 36994 ft | 428 kts | 193° |
| 2026-05-07 09:13 | 42.74876 | 0.57243 | 37000 ft | 428 kts | 193° |
| 2026-05-07 09:14 | 42.69065 | 0.55548 | 36990 ft | 425 kts | 200° |
| 2026-05-07 09:14 | 42.63680 | 0.52316 | 36993 ft | 423 kts | 208° |
| 2026-05-07 09:15 | 42.58372 | 0.48847 | 36984 ft | 423 kts | 207° |
| 2026-05-07 09:15 | 42.53077 | 0.45432 | 36986 ft | 424 kts | 207° |
| 2026-05-07 09:16 | 42.47729 | 0.42017 | 36990 ft | 425 kts | 207° |
| 2026-05-07 09:16 | 42.42373 | 0.38610 | 37006 ft | 425 kts | 207° |
| 2026-05-07 09:17 | 42.37009 | 0.35206 | 36990 ft | 425 kts | 207° |
| 2026-05-07 09:17 | 42.31654 | 0.31812 | 36990 ft | 425 kts | 207° |
| 2026-05-07 09:18 | 42.26296 | 0.28422 | 36998 ft | 425 kts | 207° |
| 2026-05-07 09:18 | 42.20966 | 0.25056 | 37000 ft | 426 kts | 207° |
| 2026-05-07 09:19 | 42.15602 | 0.21675 | 37003 ft | 425 kts | 207° |
| 2026-05-07 09:19 | 42.10249 | 0.18308 | 36987 ft | 424 kts | 207° |
| 2026-05-07 09:20 | 42.04725 | 0.15524 | 36987 ft | 426 kts | 195° |
| 2026-05-07 09:20 | 41.98818 | 0.14506 | 36997 ft | 428 kts | 189° |
| 2026-05-07 09:21 | 41.92900 | 0.13682 | 36999 ft | 427 kts | 189° |
| 2026-05-07 09:21 | 41.86990 | 0.12827 | 37000 ft | 426 kts | 189° |
| 2026-05-07 09:22 | 41.81094 | 0.11951 | 37003 ft | 426 kts | 189° |
| 2026-05-07 09:22 | 41.75211 | 0.11071 | 37002 ft | 425 kts | 189° |
| 2026-05-07 09:23 | 41.69381 | 0.10201 | 37008 ft | 424 kts | 189° |
| 2026-05-07 09:23 | 41.63519 | 0.09327 | 37007 ft | 423 kts | 189° |
| 2026-05-07 09:24 | 41.57666 | 0.08457 | 37005 ft | 423 kts | 189° |
| 2026-05-07 09:24 | 41.51817 | 0.07589 | 37012 ft | 422 kts | 189° |
| 2026-05-07 09:25 | 41.45976 | 0.06724 | 37001 ft | 422 kts | 189° |
| 2026-05-07 09:25 | 41.40136 | 0.05861 | 37002 ft | 422 kts | 189° |
| 2026-05-07 09:26 | 41.34334 | 0.05005 | 36986 ft | 422 kts | 189° |
| 2026-05-07 09:26 | 41.28495 | 0.04145 | 36999 ft | 421 kts | 189° |
| 2026-05-07 09:27 | 41.22657 | 0.03286 | 36998 ft | 421 kts | 189° |
| 2026-05-07 09:28 | 41.13913 | 0.02003 | 37001 ft | 421 kts | 189° |
| 2026-05-07 09:28 | 41.08090 | 0.01151 | 36996 ft | 421 kts | 189° |
| 2026-05-07 09:29 | 41.02299 | 0.00310 | 36998 ft | 421 kts | 189° |
| 2026-05-07 09:29 | 40.96442 | -0.00540 | 36986 ft | 421 kts | 189° |
| 2026-05-07 09:30 | 40.90651 | -0.01379 | 36985 ft | 421 kts | 189° |
| 2026-05-07 09:30 | 40.84822 | -0.02222 | 36986 ft | 421 kts | 189° |
| 2026-05-07 09:31 | 40.78999 | -0.03063 | 36998 ft | 421 kts | 189° |
| 2026-05-07 09:31 | 40.73163 | -0.03905 | 36994 ft | 421 kts | 189° |
| 2026-05-07 09:32 | 40.67365 | -0.04739 | 36992 ft | 422 kts | 189° |
| 2026-05-07 09:32 | 40.61532 | -0.05578 | 36991 ft | 422 kts | 189° |
| 2026-05-07 09:33 | 40.55693 | -0.06484 | 36985 ft | 421 kts | 194° |
| 2026-05-07 09:33 | 40.50090 | -0.08580 | 36981 ft | 419 kts | 200° |
| 2026-05-07 09:34 | 40.44516 | -0.10841 | 36978 ft | 419 kts | 199° |
| 2026-05-07 09:34 | 40.38934 | -0.13058 | 36970 ft | 419 kts | 199° |
| 2026-05-07 09:35 | 40.33345 | -0.15258 | 36973 ft | 418 kts | 199° |
| 2026-05-07 09:35 | 40.27773 | -0.17446 | 36977 ft | 418 kts | 199° |
| 2026-05-07 09:36 | 40.22201 | -0.19638 | 36969 ft | 417 kts | 199° |
| 2026-05-07 09:36 | 40.16648 | -0.21835 | 36975 ft | 416 kts | 199° |
| 2026-05-07 09:36 | 40.13875 | -0.22932 | 36808 ft | 418 kts | 199° |
| 2026-05-07 09:37 | 40.11096 | -0.24029 | 36549 ft | 415 kts | 199° |
| 2026-05-07 09:37 | 40.08378 | -0.25101 | 36300 ft | 412 kts | 199° |
| 2026-05-07 09:37 | 40.05638 | -0.26180 | 36059 ft | 411 kts | 199° |
| 2026-05-07 09:37 | 40.02894 | -0.27261 | 35775 ft | 410 kts | 199° |
| 2026-05-07 09:38 | 40.00158 | -0.28336 | 35132 ft | 410 kts | 199° |
| 2026-05-07 09:38 | 39.97430 | -0.29398 | 34553 ft | 409 kts | 199° |
| 2026-05-07 09:38 | 39.94698 | -0.30448 | 33902 ft | 409 kts | 199° |
| 2026-05-07 09:38 | 39.91958 | -0.31500 | 33137 ft | 410 kts | 199° |
| 2026-05-07 09:39 | 39.89243 | -0.32542 | 32682 ft | 404 kts | 199° |
| 2026-05-07 09:39 | 39.86563 | -0.33578 | 32167 ft | 399 kts | 199° |
| 2026-05-07 09:39 | 39.83955 | -0.34593 | 31698 ft | 395 kts | 199° |
| 2026-05-07 09:39 | 39.81338 | -0.35613 | 31217 ft | 391 kts | 199° |
| 2026-05-07 09:40 | 39.78743 | -0.36624 | 30734 ft | 387 kts | 199° |
| 2026-05-07 09:40 | 39.76177 | -0.37622 | 30274 ft | 383 kts | 199° |
| 2026-05-07 09:40 | 39.73638 | -0.38609 | 29786 ft | 379 kts | 199° |
| 2026-05-07 09:40 | 39.71126 | -0.39585 | 29281 ft | 374 kts | 199° |
| 2026-05-07 09:41 | 39.68646 | -0.40547 | 28806 ft | 369 kts | 199° |
| 2026-05-07 09:41 | 39.66199 | -0.41495 | 28326 ft | 365 kts | 199° |
| 2026-05-07 09:41 | 39.63777 | -0.42433 | 27866 ft | 361 kts | 199° |
| 2026-05-07 09:41 | 39.61375 | -0.43363 | 27389 ft | 358 kts | 199° |
| 2026-05-07 09:42 | 39.59031 | -0.44271 | 26932 ft | 355 kts | 199° |
| 2026-05-07 09:42 | 39.56673 | -0.45182 | 26476 ft | 352 kts | 199° |
| 2026-05-07 09:42 | 39.54337 | -0.46085 | 26038 ft | 349 kts | 199° |
| 2026-05-07 09:42 | 39.52019 | -0.46980 | 25604 ft | 347 kts | 199° |
| 2026-05-07 09:43 | 39.49710 | -0.47870 | 25160 ft | 346 kts | 199° |
| 2026-05-07 09:43 | 39.47405 | -0.48747 | 24713 ft | 344 kts | 198° |
| 2026-05-07 09:43 | 39.45852 | -0.49313 | 24418 ft | 343 kts | 198° |
| 2026-05-07 09:43 | 39.43553 | -0.50134 | 23984 ft | 342 kts | 198° |
| 2026-05-07 09:44 | 39.41261 | -0.50946 | 23527 ft | 341 kts | 198° |
| 2026-05-07 09:44 | 39.38980 | -0.51754 | 23023 ft | 339 kts | 198° |
| 2026-05-07 09:44 | 39.36741 | -0.52549 | 22568 ft | 337 kts | 197° |
| 2026-05-07 09:44 | 39.34481 | -0.53353 | 22105 ft | 335 kts | 197° |
| 2026-05-07 09:45 | 39.32244 | -0.54149 | 21687 ft | 333 kts | 197° |
| 2026-05-07 09:45 | 39.30009 | -0.54945 | 21264 ft | 333 kts | 197° |
| 2026-05-07 09:45 | 39.27779 | -0.55740 | 20845 ft | 334 kts | 197° |
| 2026-05-07 09:45 | 39.25512 | -0.56548 | 20426 ft | 343 kts | 197° |
| 2026-05-07 09:46 | 39.23174 | -0.57382 | 19990 ft | 352 kts | 197° |
| 2026-05-07 09:46 | 39.20818 | -0.58220 | 19533 ft | 351 kts | 196° |
| 2026-05-07 09:46 | 39.18474 | -0.59053 | 19097 ft | 348 kts | 196° |
| 2026-05-07 09:46 | 39.16142 | -0.59881 | 18668 ft | 347 kts | 196° |
| 2026-05-07 09:47 | 39.13821 | -0.60705 | 18196 ft | 345 kts | 196° |
| 2026-05-07 09:47 | 39.11506 | -0.61526 | 17722 ft | 344 kts | 196° |
| 2026-05-07 09:47 | 39.09204 | -0.62342 | 17281 ft | 342 kts | 196° |
| 2026-05-07 09:47 | 39.06943 | -0.63143 | 16851 ft | 340 kts | 196° |
| 2026-05-07 09:48 | 39.04673 | -0.63947 | 16431 ft | 337 kts | 195° |
| 2026-05-07 09:48 | 39.02417 | -0.64746 | 16012 ft | 335 kts | 195° |
| 2026-05-07 09:48 | 39.00177 | -0.65538 | 15605 ft | 333 kts | 195° |
| 2026-05-07 09:48 | 38.97953 | -0.66324 | 15207 ft | 330 kts | 195° |
| 2026-05-07 09:49 | 38.95744 | -0.67105 | 14815 ft | 328 kts | 195° |
| 2026-05-07 09:49 | 38.93544 | -0.67881 | 14417 ft | 327 kts | 195° |
| 2026-05-07 09:49 | 38.91355 | -0.68653 | 14023 ft | 326 kts | 194° |
| 2026-05-07 09:49 | 38.89175 | -0.69422 | 13612 ft | 324 kts | 194° |
| 2026-05-07 09:50 | 38.87005 | -0.70187 | 13176 ft | 323 kts | 194° |
| 2026-05-07 09:50 | 38.84838 | -0.70949 | 12763 ft | 321 kts | 194° |
| 2026-05-07 09:50 | 38.82692 | -0.71704 | 12367 ft | 318 kts | 194° |
| 2026-05-07 09:50 | 38.80568 | -0.72451 | 11985 ft | 316 kts | 194° |
| 2026-05-07 09:51 | 38.78453 | -0.73194 | 11600 ft | 314 kts | 194° |
| 2026-05-07 09:51 | 38.76353 | -0.73932 | 11217 ft | 312 kts | 194° |
| 2026-05-07 09:51 | 38.74263 | -0.74665 | 10841 ft | 310 kts | 194° |
| 2026-05-07 09:51 | 38.72194 | -0.75391 | 10547 ft | 306 kts | 194° |
| 2026-05-07 09:52 | 38.70179 | -0.76098 | 10413 ft | 293 kts | 194° |
| 2026-05-07 09:52 | 38.68259 | -0.76771 | 10281 ft | 279 kts | 194° |
| 2026-05-07 09:52 | 38.66452 | -0.77404 | 10170 ft | 267 kts | 194° |
| 2026-05-07 09:52 | 38.64665 | -0.78031 | 10061 ft | 259 kts | 194° |
| 2026-05-07 09:53 | 38.62971 | -0.78623 | 9930 ft | 253 kts | 194° |
| 2026-05-07 09:53 | 38.61274 | -0.79217 | 9649 ft | 252 kts | 193° |
| 2026-05-07 09:53 | 38.59606 | -0.79800 | 9452 ft | 246 kts | 194° |
| 2026-05-07 09:53 | 38.57968 | -0.80371 | 9323 ft | 242 kts | 193° |
| 2026-05-07 09:54 | 38.56343 | -0.80939 | 9198 ft | 242 kts | 193° |
| 2026-05-07 09:54 | 38.54725 | -0.81515 | 9098 ft | 242 kts | 198° |
| 2026-05-07 09:54 | 38.53322 | -0.82694 | 8962 ft | 246 kts | 225° |
| 2026-05-07 09:54 | 38.52176 | -0.84349 | 8726 ft | 252 kts | 227° |
| 2026-05-07 09:55 | 38.50998 | -0.86030 | 8468 ft | 255 kts | 224° |
| 2026-05-07 09:55 | 38.49753 | -0.87637 | 8198 ft | 253 kts | 221° |
| 2026-05-07 09:55 | 38.48456 | -0.89136 | 7934 ft | 249 kts | 218° |
| 2026-05-07 09:55 | 38.47138 | -0.90503 | 7678 ft | 245 kts | 215° |
| 2026-05-07 09:56 | 38.45775 | -0.91793 | 7422 ft | 243 kts | 213° |
| 2026-05-07 09:56 | 38.44377 | -0.93012 | 7169 ft | 242 kts | 210° |
| 2026-05-07 09:56 | 38.42939 | -0.94124 | 6936 ft | 241 kts | 206° |
| 2026-05-07 09:56 | 38.41457 | -0.95118 | 6694 ft | 240 kts | 203° |
| 2026-05-07 09:57 | 38.39937 | -0.95984 | 6447 ft | 239 kts | 200° |
| 2026-05-07 09:57 | 38.38396 | -0.96768 | 6195 ft | 239 kts | 199° |
| 2026-05-07 09:57 | 38.36869 | -0.97503 | 6085 ft | 228 kts | 193° |
| 2026-05-07 09:57 | 38.35392 | -0.97474 | 5909 ft | 205 kts | 151° |
| 2026-05-07 09:58 | 38.34483 | -0.96250 | 5755 ft | 191 kts | 109° |
| 2026-05-07 09:58 | 38.34150 | -0.94643 | 5574 ft | 188 kts | 106° |
| 2026-05-07 09:58 | 38.33797 | -0.93028 | 5325 ft | 188 kts | 106° |
| 2026-05-07 09:58 | 38.33436 | -0.91433 | 5100 ft | 185 kts | 105° |
| 2026-05-07 09:59 | 38.33114 | -0.89868 | 4904 ft | 181 kts | 104° |
| 2026-05-07 09:59 | 38.32830 | -0.88317 | 4706 ft | 180 kts | 102° |
| 2026-05-07 09:59 | 38.32571 | -0.86744 | 4492 ft | 183 kts | 101° |
| 2026-05-07 09:59 | 38.32329 | -0.85174 | 4286 ft | 182 kts | 101° |
| 2026-05-07 10:00 | 38.32096 | -0.83596 | 4086 ft | 181 kts | 101° |
| 2026-05-07 10:00 | 38.31870 | -0.82023 | 3888 ft | 180 kts | 101° |
| 2026-05-07 10:00 | 38.31652 | -0.80457 | 3684 ft | 181 kts | 100° |
| 2026-05-07 10:00 | 38.31442 | -0.78867 | 3459 ft | 182 kts | 100° |
| 2026-05-07 10:01 | 38.31225 | -0.77280 | 3236 ft | 182 kts | 100° |
| 2026-05-07 10:01 | 38.31004 | -0.75702 | 2965 ft | 179 kts | 100° |
| 2026-05-07 10:01 | 38.30790 | -0.74190 | 2770 ft | 168 kts | 98° |
| 2026-05-07 10:01 | 38.30591 | -0.72780 | 2545 ft | 160 kts | 98° |
| 2026-05-07 10:02 | 38.30398 | -0.71398 | 2329 ft | 156 kts | 98° |
| 2026-05-07 10:02 | 38.30208 | -0.70049 | 2117 ft | 154 kts | 99° |
| 2026-05-07 10:02 | 38.30018 | -0.68696 | 1927 ft | 155 kts | 98° |
| 2026-05-07 10:02 | 38.29828 | -0.67347 | 1719 ft | 154 kts | 99° |
| 2026-05-07 10:03 | 38.29641 | -0.66006 | 1485 ft | 152 kts | 99° |
| 2026-05-07 10:03 | 38.29461 | -0.64719 | 1289 ft | 145 kts | 100° |
| 2026-05-07 10:03 | 38.29282 | -0.63445 | 1106 ft | 146 kts | 99° |
| 2026-05-07 10:03 | 38.29105 | -0.62177 | 894 ft | 146 kts | 99° |
| 2026-05-07 10:04 | 38.28923 | -0.60926 | 713 ft | 144 kts | 98° |
| 2026-05-07 10:04 | 38.28753 | -0.59669 | 552 ft | 144 kts | 97° |
| 2026-05-07 10:04 | 38.28581 | -0.58411 | 352 ft | 144 kts | 98° |
| 2026-05-07 10:04 | 38.28402 | -0.57165 | 161 ft | 142 kts | 98° |
| 2026-05-07 10:05 | 38.28242 | -0.56013 | 104 ft | 116 kts | 99° |
| 2026-05-07 10:05 | 38.28133 | -0.55207 | 72 ft | 65 kts | 99° |
| 2026-05-07 10:05 | 38.28161 | -0.54826 | 64 ft | 26 kts | 68° |
| 2026-05-07 10:05 | 38.28217 | -0.54715 | 62 ft | 15 kts | 11° |
| 2026-05-07 10:06 | 38.28255 | -0.54816 | 60 ft | 14 kts | 278° |
| 2026-05-07 10:06 | 38.28273 | -0.54935 | 65 ft | 13 kts | 281° |
| 2026-05-07 10:06 | 38.28285 | -0.55050 | 65 ft | 13 kts | 281° |
| 2026-05-07 10:06 | 38.28303 | -0.55161 | 83 ft | 13 kts | 282° |
| 2026-05-07 10:07 | 38.28363 | -0.55174 | 80 ft | 13 kts | 56° |
| 2026-05-07 10:07 | 38.28417 | -0.55089 | 79 ft | 13 kts | 70° |
| 2026-05-07 10:07 | 38.28442 | -0.54988 | 74 ft | 13 kts | 26° |
| 2026-05-07 10:07 | 38.28528 | -0.54966 | 80 ft | 12 kts | 10° |
| 2026-05-07 10:08 | 38.28583 | -0.54955 | 82 ft | 6 kts | 359° |
| 2026-05-07 10:08 | 38.28604 | -0.54995 | 85 ft | 6 kts | 283° |
| 2026-05-07 10:08 | 38.28610 | -0.55036 | 85 ft | 3 kts | 280° |
| 2026-05-07 10:08 | 38.28610 | -0.55038 | 86 ft | 0 kts | 280° |